createdAt,value
2018-07-22T00:01:27.047Z,22.40
2018-07-22T00:03:55.883Z,22.40
2018-07-22T00:06:24.725Z,22.40
2018-07-22T00:08:53.733Z,22.40
2018-07-22T00:11:22.995Z,22.40
2018-07-22T00:13:51.809Z,22.30
2018-07-22T00:16:20.678Z,22.20
2018-07-22T00:18:49.622Z,22.10
2018-07-22T00:21:18.470Z,22.00
2018-07-22T00:23:47.284Z,21.90
2018-07-22T00:26:16.239Z,21.90
2018-07-22T00:28:45.119Z,21.80
2018-07-22T00:31:13.914Z,21.70
2018-07-22T00:33:42.751Z,21.70
2018-07-22T00:36:11.563Z,21.70
2018-07-22T00:38:40.363Z,21.60
2018-07-22T00:41:09.554Z,21.60
2018-07-22T00:43:38.358Z,21.60
2018-07-22T00:46:07.252Z,21.60
2018-07-22T00:48:36.168Z,21.60
2018-07-22T00:51:05.015Z,21.60
2018-07-22T00:53:33.845Z,21.60
2018-07-22T00:56:02.929Z,21.60
2018-07-22T00:58:31.829Z,21.60
2018-07-22T01:01:00.642Z,21.60
2018-07-22T01:03:29.729Z,21.60
2018-07-22T01:05:58.610Z,21.60
2018-07-22T01:08:27.426Z,21.60
2018-07-22T01:10:56.347Z,21.60
2018-07-22T01:13:25.158Z,21.60
2018-07-22T01:15:53.943Z,21.60
2018-07-22T01:18:22.758Z,21.50
2018-07-22T01:20:51.560Z,21.50
2018-07-22T01:23:20.333Z,21.50
2018-07-22T01:25:49.419Z,21.40
2018-07-22T01:28:18.221Z,21.40
2018-07-22T01:30:47.007Z,21.30
2018-07-22T01:33:15.873Z,21.30
2018-07-22T01:35:44.653Z,21.30
2018-07-22T01:38:13.433Z,21.30
2018-07-22T01:40:42.373Z,21.30
2018-07-22T01:43:11.213Z,21.20
2018-07-22T01:48:08.425Z,21.20
2018-07-22T01:50:37.235Z,21.20
2018-07-22T01:53:06.103Z,21.20
2018-07-22T01:55:34.984Z,21.10
2018-07-22T01:58:03.794Z,21.10
2018-07-22T02:00:32.617Z,21.10
2018-07-22T02:03:01.467Z,21.10
2018-07-22T02:05:31.042Z,21.10
2018-07-22T02:07:59.838Z,21.00
2018-07-22T02:10:28.700Z,20.90
2018-07-22T02:12:57.541Z,20.90
2018-07-22T02:15:26.343Z,20.80
2018-07-22T02:17:55.187Z,20.70
2018-07-22T02:20:24.027Z,20.60
2018-07-22T02:22:52.828Z,20.50
2018-07-22T02:25:21.792Z,20.50
2018-07-22T02:27:50.575Z,20.50
2018-07-22T02:30:19.385Z,20.50
2018-07-22T02:32:48.613Z,20.40
2018-07-22T02:35:17.411Z,20.30
2018-07-22T02:37:46.207Z,20.30
2018-07-22T02:40:15.049Z,20.20
2018-07-22T02:42:43.870Z,20.20
2018-07-22T02:45:12.771Z,20.10
2018-07-22T02:47:41.717Z,20.10
2018-07-22T02:50:10.519Z,20.20
2018-07-22T02:52:39.627Z,20.10
2018-07-22T02:55:08.913Z,20.10
2018-07-22T03:00:06.763Z,20.10
2018-07-22T03:02:35.824Z,20.00
2018-07-22T03:05:04.804Z,20.10
2018-07-22T03:07:33.615Z,20.00
2018-07-22T03:10:02.431Z,20.00
2018-07-22T03:12:31.241Z,20.10
2018-07-22T03:15:00.271Z,20.10
2018-07-22T03:17:29.040Z,20.10
2018-07-22T03:19:57.843Z,20.00
2018-07-22T03:22:26.674Z,20.10
2018-07-22T03:24:55.485Z,20.10
2018-07-22T03:27:24.256Z,20.10
2018-07-22T03:29:53.231Z,20.20
2018-07-22T03:32:22.025Z,20.20
2018-07-22T03:34:50.826Z,20.20
2018-07-22T03:37:19.640Z,20.20
2018-07-22T03:39:48.450Z,20.20
2018-07-22T03:42:17.595Z,20.20
2018-07-22T03:44:47.799Z,20.30
2018-07-22T03:47:17.855Z,20.30
2018-07-22T03:49:47.665Z,20.40
2018-07-22T03:54:47.016Z,20.50
2018-07-22T03:57:16.970Z,20.60
2018-07-22T03:59:47.741Z,20.70
2018-07-22T04:02:20.051Z,20.70
2018-07-22T04:04:50.359Z,20.80
2018-07-22T04:07:20.584Z,20.80
2018-07-22T04:09:50.568Z,20.80
2018-07-22T04:12:20.835Z,20.90
2018-07-22T04:14:50.029Z,20.90
2018-07-22T04:17:21.609Z,21.00
2018-07-22T04:19:51.411Z,21.10
2018-07-22T04:22:20.711Z,21.20
2018-07-22T04:24:50.392Z,21.20
2018-07-22T04:29:50.001Z,21.40
2018-07-22T04:32:19.672Z,21.50
2018-07-22T04:34:49.209Z,21.50
2018-07-22T04:37:18.740Z,21.60
2018-07-22T04:39:48.514Z,21.70
2018-07-22T04:42:18.278Z,21.70
2018-07-22T04:44:47.571Z,21.80
2018-07-22T04:47:18.390Z,21.90
2018-07-22T04:49:47.963Z,21.90
2018-07-22T04:52:20.193Z,22.00
2018-07-22T04:54:51.025Z,22.00
2018-07-22T04:57:21.345Z,22.10
2018-07-22T05:02:19.694Z,22.20
2018-07-22T05:04:49.395Z,22.30
2018-07-22T05:07:20.192Z,22.40
2018-07-22T05:09:50.422Z,22.40
2018-07-22T05:12:20.038Z,22.50
2018-07-22T05:14:50.082Z,22.60
2018-07-22T05:17:21.390Z,22.70
2018-07-22T05:19:51.298Z,22.80
2018-07-22T05:22:21.515Z,22.80
2018-07-22T05:24:50.693Z,23.00
2018-07-22T05:27:20.853Z,23.10
2018-07-22T05:29:50.344Z,23.10
2018-07-22T05:32:20.102Z,23.20
2018-07-22T05:34:50.413Z,23.30
2018-07-22T05:37:20.238Z,23.40
2018-07-22T05:39:49.865Z,23.50
2018-07-22T05:42:20.086Z,23.60
2018-07-22T05:44:49.789Z,23.70
2018-07-22T05:47:19.267Z,23.80
2018-07-22T05:49:49.448Z,23.90
2018-07-22T05:52:19.145Z,24.00
2018-07-22T05:54:48.843Z,24.20
2018-07-22T05:57:19.063Z,24.20
2018-07-22T05:59:48.633Z,24.30
2018-07-22T06:02:18.280Z,24.50
2018-07-22T06:04:49.407Z,24.60
2018-07-22T06:07:19.677Z,24.70
2018-07-22T06:09:49.514Z,24.90
2018-07-22T06:12:18.786Z,25.00
2018-07-22T06:14:48.312Z,25.10
2018-07-22T06:17:18.361Z,25.30
2018-07-22T06:19:48.447Z,25.40
2018-07-22T06:22:18.499Z,25.60
2018-07-22T06:24:47.926Z,25.80
2018-07-22T06:27:17.611Z,26.00
2018-07-22T06:29:47.063Z,26.00
2018-07-22T06:32:16.784Z,26.10
2018-07-22T06:34:50.535Z,26.30
2018-07-22T06:37:19.510Z,26.60
2018-07-22T06:39:48.324Z,26.90
2018-07-22T06:42:18.066Z,26.90
2018-07-22T06:44:47.970Z,26.90
2018-07-22T06:47:17.335Z,26.90
2018-07-22T06:49:49.112Z,26.90
2018-07-22T06:52:18.954Z,26.80
2018-07-22T06:54:48.951Z,27.00
2018-07-22T06:57:20.151Z,27.20
2018-07-22T06:59:50.448Z,27.50
2018-07-22T07:02:20.118Z,27.70
2018-07-22T07:04:49.477Z,28.00
2018-07-22T07:07:19.141Z,28.30
2018-07-22T07:09:49.285Z,28.60
2018-07-22T07:12:19.345Z,28.90
2018-07-22T07:14:49.505Z,29.20
2018-07-22T07:17:19.305Z,29.50
2018-07-22T07:19:49.011Z,29.80
2018-07-22T07:22:19.544Z,30.10
2018-07-22T07:24:48.729Z,30.30
2018-07-22T07:27:18.050Z,30.60
2018-07-22T07:29:47.273Z,30.90
2018-07-22T07:32:17.712Z,31.30
2018-07-22T07:34:47.853Z,31.90
2018-07-22T07:37:17.137Z,32.60
2018-07-22T07:39:47.739Z,33.30
2018-07-22T07:42:19.323Z,34.20
2018-07-22T07:44:49.538Z,35.00
2018-07-22T07:47:18.601Z,36.00
2018-07-22T07:49:48.053Z,36.80
2018-07-22T07:52:18.238Z,37.60
2018-07-22T07:54:47.963Z,38.30
2018-07-22T07:57:17.863Z,39.70
2018-07-22T08:02:16.310Z,40.10
2018-07-22T08:04:45.951Z,40.40
2018-07-22T08:07:15.630Z,40.90
2018-07-22T08:14:44.604Z,41.30
2018-07-22T08:17:14.363Z,41.60
2018-07-22T08:19:45.758Z,42.30
2018-07-22T08:22:15.899Z,43.00
2018-07-22T08:24:46.119Z,43.80
2018-07-22T08:27:16.249Z,44.60
2018-07-22T08:29:46.854Z,45.20
2018-07-22T08:32:16.343Z,45.70
2018-07-22T08:34:45.836Z,46.40
2018-07-22T08:37:16.035Z,46.90
2018-07-22T08:39:45.550Z,47.60
2018-07-22T08:42:14.836Z,48.10
2018-07-22T08:44:44.171Z,48.30
2018-07-22T08:47:14.037Z,47.80
2018-07-22T08:49:44.141Z,47.90
2018-07-22T08:52:13.756Z,47.60
2018-07-22T08:54:43.219Z,47.40
2018-07-22T08:57:12.466Z,47.60
2018-07-22T08:59:41.360Z,47.70
2018-07-22T09:02:11.387Z,48.10
2018-07-22T09:04:41.640Z,48.60
2018-07-22T09:07:11.639Z,49.10
2018-07-22T09:09:41.033Z,49.60
2018-07-22T09:12:11.021Z,50.10
2018-07-22T09:14:40.670Z,50.60
2018-07-22T09:17:10.481Z,50.90
2018-07-22T09:19:40.691Z,50.70
2018-07-22T09:24:39.971Z,50.60
2018-07-22T09:27:10.169Z,50.60
2018-07-22T09:29:39.927Z,50.70
2018-07-22T09:32:10.472Z,50.70
2018-07-22T09:34:39.859Z,51.00
2018-07-22T09:37:09.480Z,51.40
2018-07-22T09:39:39.966Z,51.50
2018-07-22T09:42:09.404Z,51.60
2018-07-22T09:44:39.265Z,51.60
2018-07-22T09:47:08.897Z,51.40
2018-07-22T09:49:38.137Z,51.60
2018-07-22T09:52:07.593Z,51.80
2018-07-22T09:54:37.520Z,52.00
2018-07-22T09:57:07.872Z,52.00
2018-07-22T09:59:37.697Z,52.10
2018-07-22T10:02:07.092Z,51.70
2018-07-22T10:04:37.884Z,52.00
2018-07-22T10:07:09.003Z,52.40
2018-07-22T10:09:39.057Z,52.00
2018-07-22T10:12:08.643Z,52.10
2018-07-22T10:14:38.975Z,52.00
2018-07-22T10:17:08.164Z,51.70
2018-07-22T10:19:37.259Z,51.70
2018-07-22T10:22:06.344Z,51.50
2018-07-22T10:24:36.331Z,51.40
2018-07-22T10:27:06.330Z,51.50
2018-07-22T10:29:37.263Z,52.00
2018-07-22T10:32:08.054Z,52.40
2018-07-22T10:34:37.637Z,52.70
2018-07-22T10:37:07.136Z,52.80
2018-07-22T10:39:40.428Z,53.00
2018-07-22T10:42:11.278Z,52.70
2018-07-22T10:44:41.855Z,52.40
2018-07-22T10:49:40.883Z,52.40
2018-07-22T10:52:10.446Z,52.30
2018-07-22T10:54:39.583Z,52.10
2018-07-22T10:57:09.669Z,52.00
2018-07-22T10:59:39.896Z,51.50
2018-07-22T11:02:10.123Z,50.90
2018-07-22T11:04:39.421Z,50.40
2018-07-22T11:07:08.899Z,49.60
2018-07-22T11:09:39.408Z,48.80
2018-07-22T11:12:09.365Z,46.90
2018-07-22T11:14:39.176Z,46.00
2018-07-22T11:17:08.191Z,44.80
2018-07-22T11:19:38.556Z,44.10
2018-07-22T11:22:08.632Z,43.40
2018-07-22T11:24:38.627Z,42.70
2018-07-22T11:27:07.981Z,42.10
2018-07-22T11:29:37.236Z,41.70
2018-07-22T11:32:07.822Z,41.00
2018-07-22T11:34:37.314Z,40.20
2018-07-22T11:37:06.395Z,38.90
2018-07-22T11:39:35.577Z,38.40
2018-07-22T11:42:05.979Z,38.40
2018-07-22T11:44:36.338Z,38.00
2018-07-22T11:47:07.091Z,37.60
2018-07-22T11:49:37.782Z,37.30
2018-07-22T11:52:07.334Z,36.90
2018-07-22T11:54:36.899Z,36.60
2018-07-22T11:57:08.756Z,36.20
2018-07-22T11:59:38.383Z,35.90
2018-07-22T12:02:09.039Z,35.30
2018-07-22T12:04:39.369Z,35.30
2018-07-22T12:07:10.734Z,35.10
2018-07-22T12:09:40.986Z,35.00
2018-07-22T12:12:11.026Z,34.80
2018-07-22T12:14:40.784Z,34.80
2018-07-22T12:17:10.770Z,34.80
2018-07-22T12:19:39.829Z,34.90
2018-07-22T12:22:09.473Z,34.80
2018-07-22T12:24:39.926Z,34.80
2018-07-22T12:27:10.561Z,34.80
2018-07-22T12:29:39.787Z,34.70
2018-07-22T12:32:09.830Z,34.50
2018-07-22T12:34:39.786Z,34.50
2018-07-22T12:37:09.475Z,34.50
2018-07-22T12:39:39.931Z,34.40
2018-07-22T12:42:10.496Z,34.30
2018-07-22T12:44:40.856Z,34.40
2018-07-22T12:47:10.113Z,34.40
2018-07-22T12:49:39.472Z,34.40
2018-07-22T12:52:09.108Z,34.30
2018-07-22T12:54:38.140Z,34.30
2018-07-22T12:57:08.182Z,34.30
2018-07-22T13:02:06.879Z,34.20
2018-07-22T13:04:35.966Z,34.20
2018-07-22T13:07:04.910Z,34.00
2018-07-22T13:09:33.963Z,34.00
2018-07-22T13:12:04.112Z,33.80
2018-07-22T13:14:35.543Z,33.80
2018-07-22T13:17:05.336Z,33.50
2018-07-22T13:19:35.447Z,33.50
2018-07-22T13:22:05.153Z,33.30
2018-07-22T13:24:34.707Z,33.00
2018-07-22T13:27:03.912Z,32.80
2018-07-22T13:29:34.798Z,32.80
2018-07-22T13:32:07.309Z,32.70
2018-07-22T13:34:36.469Z,32.50
2018-07-22T13:37:06.413Z,32.30
2018-07-22T13:39:37.876Z,32.30
2018-07-22T13:42:07.711Z,32.10
2018-07-22T13:44:38.605Z,32.10
2018-07-22T13:47:08.497Z,31.90
2018-07-22T13:49:38.034Z,31.90
2018-07-22T13:54:36.940Z,31.90
2018-07-22T13:57:06.493Z,31.90
2018-07-22T13:59:35.842Z,31.90
2018-07-22T14:02:06.612Z,31.90
2018-07-22T14:04:36.326Z,31.90
2018-07-22T14:09:35.754Z,31.60
2018-07-22T14:12:06.495Z,31.60
2018-07-22T14:14:36.106Z,31.50
2018-07-22T14:17:06.831Z,31.30
2018-07-22T14:19:37.954Z,31.30
2018-07-22T14:22:07.522Z,31.20
2018-07-22T14:24:40.430Z,31.20
2018-07-22T14:27:09.327Z,31.20
2018-07-22T14:29:39.145Z,31.10
2018-07-22T14:32:08.906Z,31.00
2018-07-22T14:34:39.242Z,31.00
2018-07-22T14:37:08.978Z,30.90
2018-07-22T14:39:39.312Z,30.90
2018-07-22T14:42:10.067Z,30.80
2018-07-22T14:44:39.970Z,30.80
2018-07-22T14:47:09.983Z,30.80
2018-07-22T14:49:39.641Z,30.70
2018-07-22T14:52:09.130Z,30.70
2018-07-22T14:54:38.819Z,30.70
2018-07-22T14:57:09.386Z,30.60
2018-07-22T14:59:38.673Z,30.70
2018-07-22T15:02:08.149Z,30.70
2018-07-22T15:04:37.144Z,30.80
2018-07-22T15:07:08.015Z,30.90
2018-07-22T15:09:38.044Z,30.90
2018-07-22T15:12:07.802Z,31.00
2018-07-22T15:14:36.733Z,31.10
2018-07-22T15:17:08.126Z,31.30
2018-07-22T15:19:37.579Z,31.50
2018-07-22T15:22:07.417Z,31.50
2018-07-22T15:24:37.680Z,31.60
2018-07-22T15:27:07.563Z,31.70
2018-07-22T15:29:37.427Z,31.80
2018-07-22T15:32:08.906Z,31.80
2018-07-22T15:34:42.275Z,31.70
2018-07-22T15:37:12.491Z,31.50
2018-07-22T15:39:42.125Z,31.30
2018-07-22T15:42:12.234Z,31.10
2018-07-22T15:44:42.246Z,31.10
2018-07-22T15:47:11.818Z,31.00
2018-07-22T15:49:41.702Z,30.90
2018-07-22T15:52:11.939Z,30.90
2018-07-22T15:54:42.855Z,30.90
2018-07-22T15:57:11.918Z,30.80
2018-07-22T15:59:41.746Z,30.80
2018-07-22T16:02:12.418Z,30.80
2018-07-22T16:04:42.454Z,30.80
2018-07-22T16:07:13.628Z,30.80
2018-07-22T16:09:43.792Z,30.70
2018-07-22T16:14:42.794Z,30.60
2018-07-22T16:17:12.062Z,30.50
2018-07-22T16:19:43.371Z,30.50
2018-07-22T16:22:13.876Z,30.50
2018-07-22T16:24:43.569Z,30.30
2018-07-22T16:27:13.836Z,30.30
2018-07-22T16:29:45.423Z,30.20
2018-07-22T16:32:16.050Z,30.10
2018-07-22T16:34:46.748Z,29.90
2018-07-22T16:37:15.741Z,29.90
2018-07-22T16:39:45.505Z,29.80
2018-07-22T16:42:17.151Z,29.70
2018-07-22T16:44:46.305Z,29.60
2018-07-22T16:47:15.848Z,29.50
2018-07-22T16:49:45.365Z,29.50
2018-07-22T16:52:15.534Z,29.40
2018-07-22T16:54:45.124Z,29.40
2018-07-22T16:57:15.768Z,29.20
2018-07-22T16:59:44.976Z,29.20
2018-07-22T17:02:14.411Z,29.10
2018-07-22T17:04:43.938Z,29.00
2018-07-22T17:07:13.000Z,28.80
2018-07-22T17:09:44.727Z,28.70
2018-07-22T17:12:14.334Z,28.50
2018-07-22T17:14:43.956Z,28.40
2018-07-22T17:17:13.675Z,28.20
2018-07-22T17:19:43.906Z,28.10
2018-07-22T17:22:13.514Z,28.00
2018-07-22T17:24:43.381Z,28.00
2018-07-22T17:27:13.756Z,27.80
2018-07-22T17:29:44.464Z,27.80
2018-07-22T17:32:14.963Z,27.70
2018-07-22T17:34:44.020Z,27.70
2018-07-22T17:37:14.170Z,27.50
2018-07-22T17:39:43.674Z,27.50
2018-07-22T17:42:13.177Z,27.50
2018-07-22T17:44:43.218Z,27.50
2018-07-22T17:47:15.226Z,27.50
2018-07-22T17:49:44.988Z,27.30
2018-07-22T17:52:15.337Z,27.20
2018-07-22T17:54:44.658Z,27.20
2018-07-22T17:59:57.989Z,27.00
2018-07-22T18:02:27.493Z,26.90
2018-07-22T18:05:02.823Z,26.80
2018-07-22T18:07:31.769Z,26.70
2018-07-22T18:10:01.817Z,26.70
2018-07-22T18:12:32.279Z,26.70
2018-07-22T18:15:01.539Z,26.70
2018-07-22T18:17:31.198Z,26.70
2018-07-22T18:20:01.791Z,26.70
2018-07-22T18:22:31.473Z,26.60
2018-07-22T18:25:02.375Z,26.60
2018-07-22T18:27:31.770Z,26.60
2018-07-22T18:30:01.662Z,26.60
2018-07-22T18:32:31.225Z,26.40
2018-07-22T18:35:02.775Z,26.50
2018-07-22T18:37:34.817Z,26.50
2018-07-22T18:40:04.584Z,26.40
2018-07-22T18:42:35.053Z,26.30
2018-07-22T18:45:04.650Z,26.30
2018-07-22T18:47:34.851Z,26.10
2018-07-22T18:50:04.280Z,26.20
2018-07-22T18:52:38.482Z,26.10
2018-07-22T18:55:09.170Z,26.10
2018-07-22T18:57:40.134Z,26.10
2018-07-22T19:00:10.474Z,26.10
2018-07-22T19:05:08.730Z,26.00
2018-07-22T19:07:38.135Z,26.00
2018-07-22T19:10:08.644Z,26.00
2018-07-22T19:12:39.119Z,26.00
2018-07-22T19:15:10.157Z,26.00
2018-07-22T19:17:39.940Z,26.00
2018-07-22T19:20:10.136Z,26.00
2018-07-22T19:22:39.885Z,26.10
2018-07-22T19:25:10.015Z,26.10
2018-07-22T19:27:40.057Z,26.00
2018-07-22T19:30:13.648Z,26.10
2018-07-22T19:32:43.563Z,26.00
2018-07-22T19:35:12.820Z,26.00
2018-07-22T19:37:42.748Z,26.00
2018-07-22T19:40:12.700Z,26.00
2018-07-22T19:42:42.070Z,26.00
2018-07-22T19:45:12.318Z,25.90
2018-07-22T19:47:41.717Z,25.80
2018-07-22T19:50:11.922Z,25.80
